Página principal
METAR-TAF:

METAR-TAF

Aeroportos :

Base Aérea de Beja

Beja, Portugal

latitude: 38-04-40N, longitude: 007-55-57W, altura: 193 m

Observação actual do tempo

O boletim foi feito há 44 minutos, às 19:00 UTC
Vento 5 kt de nordeste
Temperatura 10°C
Humidade 62%
Pressão 1029 hPa
Visibilidade 10 km ou mais
sem nuvens abaixo de 1500 metros e sem cumulonimbus

METAR: LPBJ 171900Z 04005KT CAVOK 10/03 Q1029

Hora: 19:44 (19:44 UTC)

Previsão

O boletim foi feito há 2 horas e 41 minutos, às 17:03 UTC
Previsão válida de 17 às 18 UTC a 18 às 18 UTC
Vento 5 kt de este
Visibilidade 10 km ou mais
sem nuvens abaixo de 1500 metros e sem cumulonimbus
Probabilidade 40%
de 18 às 05 UTC a 18 às 09 UTC
Vento 2 kt com direcção variável
Visibilidade: 0700 m
Nuvens fragmentadasa uma altura de 200 ft
nevoeiro

TAF: LPBJ 171703Z 1718/1818 09005KT CAVOK PROB40 1805/1809 VRB02KT 0700 FG BKN002

Observações e previsões do tempo de mais de 4000 aeroportos (mensagens METAR e TAF).

As estações disponíveis são os pontos amarelos e vermelhos sobre o mapa.

Mova o rato sobre o mapa para ver o nome da estação.

Depois clique no ponto para visualizar as observações e previsões meteorológicas.

Para alterar o mapa : clique nos botões verdes com uma cruz preta para aumentar o zoom; no botão verde com uma pitada de zoom; ou nas setas verdes para mapas adjacentes.


METAR-TAF: